Time;durP1;ratioP1;P1;durP2;ratioP2;P2;SDS_P1;SDS_P2;PMS_P1;PMS_P2;Temp;Humidity;BMP_temperature;BMP_pressure;BME280_temperature;BME280_humidity;BME280_pressure;Samples;Min_cycle;Max_cycle;Signal;HPM_P1;HPM_P2
2023/04/03 00:01:08;;;;;;;0.30;0.30;;;;;;;10.86;43.96;103206.50;5035715;28;20024;-65
2023/04/03 00:03:34;;;;;;;0.20;0.20;;;;;;;10.61;44.96;103205.69;5034633;28;20052;-64
2023/04/03 00:06:00;;;;;;;0.30;0.30;;;;;;;11.09;43.72;103202.97;5033744;28;20512;-63
2023/04/03 00:08:26;;;;;;;0.30;0.30;;;;;;;10.88;43.66;103201.81;5033866;28;20040;-65
2023/04/03 00:10:51;;;;;;;0.20;0.20;;;;;;;10.65;44.42;103208.88;5034093;28;20432;-63
2023/04/03 00:13:17;;;;;;;0.20;0.20;;;;;;;10.86;44.47;103206.50;5034729;28;20037;-64
2023/04/03 00:15:43;;;;;;;0.20;0.20;;;;;;;10.88;44.97;103209.88;5034236;28;20413;-65
2023/04/03 00:18:09;;;;;;;0.30;0.30;;;;;;;10.52;44.58;103214.75;5034021;28;20517;-63
2023/04/03 00:20:34;;;;;;;0.22;0.22;;;;;;;10.85;44.24;103211.03;5033971;28;20044;-63
2023/04/03 00:23:00;;;;;;;0.20;0.20;;;;;;;10.63;44.68;103211.75;5026736;28;20042;-65
2023/04/03 00:25:26;;;;;;;0.20;0.20;;;;;;;10.64;44.73;103213.41;5034447;28;20029;-64
2023/04/03 00:27:51;;;;;;;0.30;0.30;;;;;;;10.49;44.54;103217.78;5038258;28;20049;-63
2023/04/03 00:30:19;;;;;;;0.25;0.25;;;;;;;10.34;46.00;103220.28;5034099;28;20072;-64
2023/04/03 00:32:44;;;;;;;0.30;0.30;;;;;;;10.46;45.24;103218.09;5032406;28;20033;-64
2023/04/03 00:35:10;;;;;;;0.20;0.20;;;;;;;10.65;45.04;103217.81;5024795;28;20040;-64
2023/04/03 00:37:36;;;;;;;0.20;0.20;;;;;;;10.74;44.96;103218.63;5034456;28;20065;-65
2023/04/03 00:40:03;;;;;;;0.30;0.30;;;;;;;10.80;44.17;103212.56;5033852;28;20033;-64
2023/04/03 00:42:29;;;;;;;0.30;0.30;;;;;;;10.81;43.99;103217.78;5033699;28;20366;-65
2023/04/03 00:44:57;;;;;;;0.40;0.40;;;;;;;10.91;44.38;103218.44;5033689;28;20056;-64
2023/04/03 00:47:24;;;;;;;0.20;0.20;;;;;;;10.17;46.36;103220.41;5033575;28;20053;-64
2023/04/03 00:49:52;;;;;;;0.40;0.40;;;;;;;10.82;44.32;103216.78;5034198;28;20030;-64
2023/04/03 00:52:23;;;;;;;0.30;0.30;;;;;;;10.66;45.06;103219.47;5053704;28;20556;-63
2023/04/03 00:54:52;;;;;;;0.20;0.20;;;;;;;10.16;46.11;103224.09;5052694;28;20056;-66
2023/04/03 00:57:18;;;;;;;0.20;0.20;;;;;;;10.44;45.60;103230.84;5053023;28;20044;-65
2023/04/03 00:59:49;;;;;;;0.20;0.20;;;;;;;10.74;45.05;103224.84;5052985;28;20040;-64
2023/04/03 01:02:15;;;;;;;0.30;0.30;;;;;;;10.41;46.11;103224.00;5053260;28;20037;-64
2023/04/03 01:04:42;;;;;;;0.20;0.20;;;;;;;10.52;44.96;103230.88;5052900;28;20078;-64
2023/04/03 01:07:11;;;;;;;0.20;0.20;;;;;;;10.42;45.41;103233.72;5041631;28;20049;-64
2023/04/03 01:09:38;;;;;;;0.20;0.20;;;;;;;10.56;45.44;103232.22;5032856;28;20056;-63
2023/04/03 01:12:28;;;;;;;0.30;0.30;;;;;;;10.52;46.05;103230.88;5032839;28;20537;-64
2023/04/03 01:14:56;;;;;;;0.30;0.30;;;;;;;10.43;45.45;103229.19;4932782;29;20104;-63
2023/04/03 01:17:43;;;;;;;0.20;0.20;;;;;;;10.15;46.79;103230.47;4933006;29;20107;-63
2023/04/03 01:20:27;;;;;;;0.20;0.20;;;;;;;10.43;46.03;103229.19;4932871;29;20102;-63
2023/04/03 01:22:53;;;;;;;0.32;0.32;;;;;;;10.53;45.74;103232.56;4932162;29;20105;-63
2023/04/03 01:25:18;;;;;;;0.30;0.30;;;;;;;10.37;45.89;103240.59;4932864;29;20106;-64
2023/04/03 01:27:43;;;;;;;0.25;0.25;;;;;;;10.47;45.50;103233.22;4932870;29;20032;-63
2023/04/03 01:30:09;;;;;;;0.30;0.30;;;;;;;10.21;45.71;103236.03;4932781;29;20114;-63
2023/04/03 01:32:35;;;;;;;0.30;0.30;;;;;;;10.24;45.38;103241.06;4932666;29;20523;-63
2023/04/03 01:35:00;;;;;;;0.30;0.30;;;;;;;10.35;45.96;103235.41;4932361;29;20064;-64
2023/04/03 01:37:25;;;;;;;0.30;0.30;;;;;;;10.36;46.70;103238.91;4933029;29;20102;-65
2023/04/03 01:39:51;;;;;;;0.30;0.30;;;;;;;10.27;46.62;103237.22;4932702;29;20114;-63
2023/04/03 01:42:16;;;;;;;0.30;0.30;;;;;;;10.18;47.36;103246.28;4932486;29;20118;-63
2023/04/03 01:44:41;;;;;;;0.20;0.20;;;;;;;10.30;46.29;103253.03;4932255;29;20095;-64
2023/04/03 01:47:07;;;;;;;0.30;0.30;;;;;;;10.09;46.21;103249.91;4932924;29;20207;-65
2023/04/03 01:49:32;;;;;;;0.30;0.30;;;;;;;10.15;46.59;103242.06;4933139;29;20070;-63
2023/04/03 01:51:57;;;;;;;0.30;0.30;;;;;;;10.23;46.14;103247.47;4985394;28;20033;-64
2023/04/03 01:54:23;;;;;;;0.30;0.30;;;;;;;10.23;46.79;103244.78;5032047;28;20121;-64
2023/04/03 01:56:48;;;;;;;0.30;0.30;;;;;;;10.10;47.05;103241.69;5032152;28;20504;-65
2023/04/03 01:59:16;;;;;;;0.30;0.30;;;;;;;10.06;47.63;103248.41;5032539;28;20497;-64
2023/04/03 02:01:43;;;;;;;0.30;0.30;;;;;;;9.93;48.56;103252.53;5032276;28;20075;-63
2023/04/03 02:04:08;;;;;;;0.22;0.22;;;;;;;10.02;47.58;103243.50;5032501;28;20033;-65
2023/04/03 02:06:34;;;;;;;0.20;0.20;;;;;;;10.02;47.56;103247.03;5038679;28;20520;-63
2023/04/03 02:09:00;;;;;;;0.30;0.30;;;;;;;9.85;47.93;103252.53;5034009;28;20091;-64
2023/04/03 02:11:25;;;;;;;0.30;0.30;;;;;;;9.86;47.46;103251.50;5052017;28;20033;-63
2023/04/03 02:13:51;;;;;;;0.40;0.40;;;;;;;10.18;47.70;103248.97;5051951;28;20063;-63
2023/04/03 02:16:16;;;;;;;0.20;0.20;;;;;;;9.93;48.18;103257.88;5052263;28;20112;-63
2023/04/03 02:18:41;;;;;;;0.22;0.22;;;;;;;9.71;48.33;103251.25;5033915;28;20493;-64
2023/04/03 02:21:07;;;;;;;0.30;0.30;;;;;;;9.89;48.48;103256.53;5031705;28;20033;-63
2023/04/03 02:23:35;;;;;;;0.30;0.30;;;;;;;9.47;49.29;103256.50;5038036;28;20128;-64
2023/04/03 02:26:15;;;;;;;0.30;0.30;;;;;;;9.89;48.63;103256.53;5051784;28;20028;-66
2023/04/03 02:28:41;;;;;;;0.30;0.30;;;;;;;9.89;48.05;103256.53;5051595;28;20047;-65
2023/04/03 02:31:07;;;;;;;0.30;0.30;;;;;;;9.53;49.23;103259.38;5051897;28;20024;-63
2023/04/03 02:33:33;;;;;;;0.30;0.30;;;;;;;9.76;48.90;103262.38;5051090;28;20025;-63
2023/04/03 02:35:59;;;;;;;0.30;0.30;;;;;;;9.92;47.96;103267.81;5031386;28;20045;-64
2023/04/03 02:38:25;;;;;;;0.28;0.28;;;;;;;9.77;48.54;103264.03;5037294;28;20513;-64
2023/04/03 02:40:51;;;;;;;0.30;0.30;;;;;;;9.53;49.06;103272.81;5052060;28;20021;-65
2023/04/03 02:43:17;;;;;;;0.20;0.20;;;;;;;9.56;49.01;103274.34;5052221;28;20021;-64
2023/04/03 02:45:43;;;;;;;0.20;0.20;;;;;;;9.56;49.00;103277.03;5048184;28;20983;-65
2023/04/03 02:48:08;;;;;;;0.25;0.25;;;;;;;9.48;49.22;103274.28;5031519;28;20033;-66
2023/04/03 02:50:34;;;;;;;0.40;0.40;;;;;;;9.72;48.49;103277.97;5031801;28;20388;-64
2023/04/03 02:52:59;;;;;;;0.30;0.30;;;;;;;9.66;49.01;103275.91;5031463;28;20108;-63
2023/04/03 02:55:24;;;;;;;0.20;0.20;;;;;;;9.76;48.80;103289.22;5032905;28;20116;-63
2023/04/03 02:57:50;;;;;;;0.40;0.40;;;;;;;9.57;49.24;103292.97;5035564;28;20108;-64
2023/04/03 03:00:15;;;;;;;0.20;0.20;;;;;;;9.52;50.03;103286.38;5035577;28;20048;-64
2023/04/03 03:02:41;;;;;;;0.20;0.20;;;;;;;9.35;49.25;103289.97;5035374;28;20036;-64
2023/04/03 03:05:07;;;;;;;0.30;0.30;;;;;;;9.28;50.38;103295.13;5034923;28;20038;-65
2023/04/03 03:07:32;;;;;;;0.20;0.20;;;;;;;9.57;49.69;103294.81;5035356;28;20045;-63
2023/04/03 03:09:58;;;;;;;0.30;0.30;;;;;;;9.57;49.57;103292.13;5035161;28;20044;-63
2023/04/03 03:12:24;;;;;;;0.30;0.30;;;;;;;9.53;49.39;103296.13;5035109;28;20509;-64
2023/04/03 03:14:50;;;;;;;0.30;0.30;;;;;;;9.59;49.22;103295.50;5034647;28;20459;-63
2023/04/03 03:17:16;;;;;;;0.20;0.20;;;;;;;9.49;49.40;103292.91;5034812;28;20045;-65
2023/04/03 03:19:41;;;;;;;0.30;0.30;;;;;;;9.48;48.96;103298.44;5034776;28;20112;-64
2023/04/03 03:22:06;;;;;;;0.30;0.30;;;;;;;9.56;49.46;103301.19;5035354;28;20524;-64
2023/04/03 03:24:32;;;;;;;0.47;0.30;;;;;;;9.39;50.21;103297.56;5034181;28;20448;-64
2023/04/03 03:26:57;;;;;;;0.20;0.20;;;;;;;9.47;49.53;103304.81;5017289;28;20429;-63
2023/04/03 03:29:22;;;;;;;0.20;0.20;;;;;;;9.14;50.60;103306.41;5034979;28;20034;-64
2023/04/03 03:31:48;;;;;;;0.30;0.30;;;;;;;9.42;50.07;103299.91;5034599;28;20509;-65
2023/04/03 03:34:13;;;;;;;0.40;0.40;;;;;;;9.28;50.22;103300.47;5034794;28;20025;-64
2023/04/03 03:36:38;;;;;;;0.30;0.30;;;;;;;9.01;51.53;103292.56;5034506;28;20088;-63
2023/04/03 03:39:04;;;;;;;0.30;0.30;;;;;;;9.24;50.44;103301.78;5034335;28;20501;-64
2023/04/03 03:41:29;;;;;;;0.30;0.30;;;;;;;9.26;49.62;103298.94;5034617;28;20036;-63
2023/04/03 03:43:55;;;;;;;0.20;0.20;;;;;;;9.34;50.27;103304.38;5035473;28;20025;-64
2023/04/03 03:46:20;;;;;;;0.28;0.28;;;;;;;9.21;50.66;103304.81;5035624;28;20025;-64
2023/04/03 03:48:45;;;;;;;0.30;0.30;;;;;;;9.30;49.60;103306.53;5025331;28;20076;-63
2023/04/03 03:51:11;;;;;;;0.30;0.30;;;;;;;9.02;51.49;103312.19;5058000;28;20036;-63
2023/04/03 03:53:36;;;;;;;0.30;0.30;;;;;;;8.99;50.89;103313.31;5047016;28;20033;-65
2023/04/03 03:56:02;;;;;;;0.30;0.30;;;;;;;9.17;50.74;103311.47;5033908;28;20060;-65
2023/04/03 03:58:27;;;;;;;0.28;0.28;;;;;;;9.16;50.16;103312.47;5034959;28;20064;-64
2023/04/03 04:00:52;;;;;;;0.30;0.30;;;;;;;9.05;51.16;103314.53;5032819;28;20037;-67
2023/04/03 04:03:18;;;;;;;0.40;0.40;;;;;;;8.95;51.37;103319.16;5033927;28;20041;-65
2023/04/03 04:05:44;;;;;;;0.30;0.30;;;;;;;9.14;50.24;103325.19;5033205;28;20042;-65
2023/04/03 04:08:09;;;;;;;0.30;0.30;;;;;;;9.01;51.15;103326.56;5033922;28;20050;-65
2023/04/03 04:10:36;;;;;;;0.40;0.40;;;;;;;8.71;51.14;103325.13;5034419;28;20104;-63
2023/04/03 04:13:02;;;;;;;0.30;0.30;;;;;;;8.85;50.90;103321.91;5033671;28;20049;-64
2023/04/03 04:15:27;;;;;;;0.30;0.30;;;;;;;9.03;51.04;103325.44;5033542;28;20057;-66
2023/04/03 04:17:53;;;;;;;0.28;0.28;;;;;;;9.18;49.95;103323.88;5034211;28;20488;-64
2023/04/03 04:20:18;;;;;;;0.20;0.20;;;;;;;9.12;50.35;103323.69;5033853;28;20037;-64
2023/04/03 04:22:44;;;;;;;0.40;0.40;;;;;;;9.07;50.77;103325.97;5034099;28;20461;-65
2023/04/03 04:25:10;;;;;;;0.22;0.22;;;;;;;8.90;50.90;103332.19;5034318;28;20104;-64
2023/04/03 04:27:36;;;;;;;0.20;0.20;;;;;;;8.61;51.68;103327.88;5033958;28;20050;-65
2023/04/03 04:30:03;;;;;;;0.30;0.30;;;;;;;8.86;50.63;103337.00;5033846;28;20037;-63
2023/04/03 04:32:28;;;;;;;0.20;0.20;;;;;;;8.81;50.51;103331.25;5033293;28;20501;-63
2023/04/03 04:34:54;;;;;;;0.32;0.32;;;;;;;8.75;51.15;103331.84;5032205;28;20033;-65
2023/04/03 04:37:19;;;;;;;0.22;0.22;;;;;;;8.50;51.78;103336.13;5032711;28;20112;-63
2023/04/03 04:39:45;;;;;;;0.30;0.30;;;;;;;8.59;51.49;103334.38;5032176;28;20036;-65
2023/04/03 04:42:12;;;;;;;0.30;0.30;;;;;;;8.81;51.21;103337.47;5032372;28;20057;-65
2023/04/03 04:44:38;;;;;;;0.22;0.22;;;;;;;8.69;51.94;103337.81;5032252;28;20445;-65
2023/04/03 04:47:04;;;;;;;0.25;0.25;;;;;;;8.42;52.41;103337.88;5032940;28;20045;-65
2023/04/03 04:49:29;;;;;;;0.40;0.40;;;;;;;8.30;52.48;103345.28;5016242;28;20056;-63
2023/04/03 04:51:54;;;;;;;0.30;0.30;;;;;;;8.69;51.15;103341.34;5033769;28;20052;-64
2023/04/03 04:54:20;;;;;;;0.30;0.30;;;;;;;8.25;51.99;103354.75;5033090;28;20065;-64
2023/04/03 04:56:45;;;;;;;0.30;0.30;;;;;;;8.48;51.90;103353.34;5032776;28;20473;-64
2023/04/03 04:59:10;;;;;;;0.30;0.30;;;;;;;8.54;51.62;103360.78;5033095;28;20091;-63
2023/04/03 05:01:36;;;;;;;0.25;0.25;;;;;;;8.54;51.52;103360.78;5031687;28;20028;-65
2023/04/03 05:04:01;;;;;;;0.20;0.20;;;;;;;8.34;52.13;103368.09;5029004;28;20140;-64
2023/04/03 05:06:27;;;;;;;0.40;0.40;;;;;;;8.32;51.40;103369.22;5034824;28;20076;-65
2023/04/03 05:08:52;;;;;;;0.30;0.30;;;;;;;8.20;52.28;103362.34;5061927;28;20048;-64
2023/04/03 05:11:17;;;;;;;0.32;0.32;;;;;;;8.52;51.67;103365.44;5042364;28;20531;-65
2023/04/03 05:13:43;;;;;;;0.40;0.40;;;;;;;8.54;51.49;103358.09;5057281;28;20033;-64
2023/04/03 05:16:08;;;;;;;0.30;0.30;;;;;;;8.23;51.68;103365.59;5052828;28;20087;-65
2023/04/03 05:18:34;;;;;;;0.30;0.30;;;;;;;8.17;52.25;103360.81;5053041;28;20060;-65
2023/04/03 05:20:59;;;;;;;0.40;0.40;;;;;;;8.02;53.07;103364.13;5060646;28;20064;-64
2023/04/03 05:23:24;;;;;;;0.40;0.40;;;;;;;8.09;52.50;103360.72;5052658;28;20041;-63
2023/04/03 05:25:50;;;;;;;0.38;0.38;;;;;;;8.24;52.45;103358.38;5054607;28;20032;-64
2023/04/03 05:28:15;;;;;;;0.40;0.40;;;;;;;7.95;53.09;103362.03;5053201;28;20036;-63
2023/04/03 05:30:41;;;;;;;0.30;0.30;;;;;;;7.93;53.16;103360.47;5053401;28;20500;-64
2023/04/03 05:33:06;;;;;;;0.30;0.30;;;;;;;8.36;51.78;103365.25;5049953;28;20048;-64
2023/04/03 05:35:32;;;;;;;0.20;0.20;;;;;;;8.37;51.99;103369.63;5050852;28;20185;-65
2023/04/03 05:37:57;;;;;;;0.28;0.28;;;;;;;8.20;52.60;103379.25;5046060;28;20033;-65
2023/04/03 05:40:23;;;;;;;0.40;0.40;;;;;;;8.38;52.40;103379.34;5035784;28;20040;-63
2023/04/03 05:42:48;;;;;;;0.30;0.30;;;;;;;8.11;52.92;103380.16;5046500;28;20516;-64
2023/04/03 05:45:14;;;;;;;1.00;0.30;;;;;;;7.93;53.62;103387.25;5036514;28;20037;-65
2023/04/03 05:47:39;;;;;;;0.30;0.30;;;;;;;8.41;51.92;103390.59;5037289;28;20448;-64
2023/04/03 05:50:05;;;;;;;0.28;0.28;;;;;;;8.38;52.00;103385.56;5052668;28;20103;-63
2023/04/03 05:52:35;;;;;;;0.20;0.20;;;;;;;8.56;50.67;103397.16;5052422;28;20472;-64
2023/04/03 05:55:00;;;;;;;0.30;0.30;;;;;;;8.21;52.83;103393.50;5050071;28;20108;-64
2023/04/03 05:57:26;;;;;;;0.20;0.20;;;;;;;8.20;52.27;103389.97;5052055;28;20106;-65
2023/04/03 05:59:51;;;;;;;0.30;0.30;;;;;;;8.38;51.98;103392.75;5051667;28;20127;-65
2023/04/03 06:02:22;;;;;;;0.30;0.30;;;;;;;7.78;53.36;103391.41;5052161;28;20044;-65
2023/04/03 06:04:48;;;;;;;0.20;0.20;;;;;;;8.54;52.01;103392.94;5049260;28;20508;-65
2023/04/03 06:07:21;;;;;;;0.30;0.30;;;;;;;8.50;51.44;103392.41;5046986;28;20051;-66
2023/04/03 06:09:46;;;;;;;0.30;0.30;;;;;;;8.68;50.96;103395.13;5032750;28;20028;-66
2023/04/03 06:12:12;;;;;;;0.30;0.30;;;;;;;8.46;51.98;103406.25;5033108;28;20029;-63
2023/04/03 06:14:37;;;;;;;0.40;0.40;;;;;;;8.68;50.97;103406.69;5032492;28;20619;-64
2023/04/03 06:17:04;;;;;;;0.25;0.25;;;;;;;8.61;51.01;103399.38;5032167;28;20052;-65
2023/04/03 06:19:30;;;;;;;0.30;0.30;;;;;;;8.21;52.83;103406.91;5025293;28;20030;-65
2023/04/03 06:21:55;;;;;;;0.22;0.22;;;;;;;8.37;52.67;103405.28;5012953;28;20117;-65
2023/04/03 06:24:23;;;;;;;0.30;0.30;;;;;;;8.58;51.65;103411.28;5012232;28;20115;-63
2023/04/03 06:26:49;;;;;;;0.28;0.28;;;;;;;8.93;50.65;103413.16;5021768;28;20038;-64
2023/04/03 06:29:15;;;;;;;0.30;0.30;;;;;;;8.78;50.99;103406.63;5031914;28;20034;-65
2023/04/03 06:31:40;;;;;;;0.20;0.20;;;;;;;8.54;51.54;103407.19;5031865;28;20029;-65
2023/04/03 06:34:07;;;;;;;0.30;0.30;;;;;;;9.10;50.14;103409.63;5012101;28;20087;-65
2023/04/03 06:36:34;;;;;;;0.20;0.20;;;;;;;9.17;49.90;103405.38;5011131;28;20109;-64
2023/04/03 06:39:00;;;;;;;0.20;0.20;;;;;;;9.06;50.18;103405.56;5022779;28;20044;-65
2023/04/03 06:41:26;;;;;;;0.30;0.30;;;;;;;9.14;50.44;103421.75;5031492;28;20026;-64
2023/04/03 06:43:51;;;;;;;0.40;0.40;;;;;;;9.31;50.41;103417.41;5031622;28;20496;-64
2023/04/03 06:46:19;;;;;;;0.38;0.38;;;;;;;9.17;50.23;103417.94;5032060;28;20026;-64
2023/04/03 06:48:45;;;;;;;0.30;0.30;;;;;;;9.10;50.11;103422.22;5013884;28;20107;-64
2023/04/03 06:51:25;;;;;;;0.30;0.30;;;;;;;9.37;48.85;103422.16;5032462;28;20041;-64
2023/04/03 06:53:54;;;;;;;0.35;0.35;;;;;;;9.47;49.03;103423.72;5031693;28;20445;-64
2023/04/03 06:56:20;;;;;;;0.30;0.30;;;;;;;9.42;49.60;103426.03;5031238;28;20057;-63
2023/04/03 06:58:46;;;;;;;0.30;0.30;;;;;;;9.48;49.23;103430.81;5030852;28;20080;-65
2023/04/03 07:01:13;;;;;;;0.20;0.20;;;;;;;9.87;47.78;103431.25;5012584;28;20541;-65
2023/04/03 07:03:39;;;;;;;0.30;0.30;;;;;;;9.96;47.05;103437.53;5027481;28;20477;-65
2023/04/03 07:06:06;;;;;;;0.30;0.30;;;;;;;9.36;49.40;103437.41;5034548;28;20063;-64
2023/04/03 07:08:32;;;;;;;0.20;0.20;;;;;;;10.15;47.17;103440.03;5052068;28;20481;-64
2023/04/03 07:10:58;;;;;;;0.35;0.35;;;;;;;10.10;47.43;103437.00;5051502;28;20380;-65
2023/04/03 07:13:23;;;;;;;0.30;0.30;;;;;;;9.32;48.50;103440.53;5051544;28;20109;-64
2023/04/03 07:15:50;;;;;;;0.30;0.30;;;;;;;10.23;46.63;103438.25;5051152;28;20036;-64
2023/04/03 07:18:16;;;;;;;0.30;0.30;;;;;;;9.21;48.50;103440.78;5051382;28;20034;-65
2023/04/03 07:20:42;;;;;;;0.30;0.30;;;;;;;10.23;45.83;103443.63;5051292;28;20099;-64
2023/04/03 07:23:08;;;;;;;0.30;0.30;;;;;;;10.22;45.94;103439.25;5051299;28;20033;-64
2023/04/03 07:25:33;;;;;;;0.32;0.32;;;;;;;10.26;44.61;103445.16;5051367;28;20033;-64
2023/04/03 07:27:59;;;;;;;0.20;0.20;;;;;;;10.35;44.61;103450.41;5051381;28;20044;-63
2023/04/03 07:30:25;;;;;;;0.30;0.30;;;;;;;10.65;43.57;103457.13;5051420;28;20458;-63
2023/04/03 07:32:51;;;;;;;0.30;0.30;;;;;;;10.43;44.59;103455.00;5050897;28;20044;-66
2023/04/03 07:35:17;;;;;;;0.30;0.30;;;;;;;9.90;43.67;103459.66;5050284;28;20037;-67
2023/04/03 07:37:42;;;;;;;0.20;0.20;;;;;;;9.18;45.13;103466.06;5050781;28;20032;-64
2023/04/03 07:40:08;;;;;;;0.30;0.30;;;;;;;9.32;44.79;103464.69;5051024;28;20480;-65
2023/04/03 07:42:34;;;;;;;0.30;0.30;;;;;;;10.89;42.33;103459.88;5053485;28;20041;-63
2023/04/03 07:45:01;;;;;;;0.40;0.40;;;;;;;10.31;42.88;103457.13;5054186;28;20068;-63
2023/04/03 07:47:27;;;;;;;0.30;0.30;;;;;;;10.66;41.56;103452.56;5054444;28;20033;-63
2023/04/03 07:49:52;;;;;;;0.10;0.10;;;;;;;10.91;39.80;103460.56;5054383;28;20052;-65
2023/04/03 07:52:17;;;;;;;0.30;0.30;;;;;;;11.76;39.37;103456.66;5055218;28;20033;-64
2023/04/03 07:54:43;;;;;;;0.20;0.20;;;;;;;11.55;38.77;103459.84;5054199;28;20388;-65
2023/04/03 07:57:08;;;;;;;0.20;0.20;;;;;;;10.27;38.89;103463.81;5053833;28;20063;-64
2023/04/03 07:59:33;;;;;;;0.30;0.30;;;;;;;11.26;38.54;103465.69;5054236;28;20045;-64
2023/04/03 08:01:59;;;;;;;0.30;0.30;;;;;;;11.79;37.58;103465.28;5054408;28;20037;-67
2023/04/03 08:04:25;;;;;;;0.30;0.30;;;;;;;12.43;35.97;103466.16;5054665;28;20528;-65
2023/04/03 08:06:51;;;;;;;0.32;0.32;;;;;;;10.65;36.76;103467.03;5051951;28;20627;-65
2023/04/03 08:09:17;;;;;;;0.20;0.20;;;;;;;11.01;36.24;103461.25;5054515;28;20061;-66
2023/04/03 08:11:43;;;;;;;0.20;0.20;;;;;;;11.33;36.21;103468.56;5054425;28;20082;-64
2023/04/03 08:14:10;;;;;;;0.22;0.22;;;;;;;11.58;36.34;103472.97;5054743;28;20108;-63
2023/04/03 08:16:36;;;;;;;0.20;0.20;;;;;;;11.29;36.04;103472.59;5054207;28;20021;-64
2023/04/03 08:19:01;;;;;;;0.20;0.20;;;;;;;11.49;36.37;103476.66;5053708;28;20035;-63
2023/04/03 08:21:26;;;;;;;0.30;0.30;;;;;;;10.82;35.57;103466.91;5035736;28;20120;-63
2023/04/03 08:23:52;;;;;;;0.25;0.25;;;;;;;11.35;34.23;103470.09;5053640;28;20029;-64
2023/04/03 08:26:21;;;;;;;0.20;0.20;;;;;;;11.78;35.20;103470.81;5053667;28;20083;-65
2023/04/03 08:28:47;;;;;;;0.20;0.20;;;;;;;11.75;33.91;103472.00;5053759;28;20029;-64
2023/04/03 08:31:16;;;;;;;0.20;0.20;;;;;;;11.57;34.63;103465.91;5053932;28;20086;-64
2023/04/03 08:33:42;;;;;;;0.10;0.10;;;;;;;11.99;33.73;103469.28;5035237;28;20047;-65
2023/04/03 08:36:17;;;;;;;0.20;0.20;;;;;;;12.19;33.35;103473.28;5053383;28;20037;-64
2023/04/03 08:38:43;;;;;;;0.30;0.30;;;;;;;12.13;33.20;103473.13;5053397;28;20037;-63
2023/04/03 08:41:15;;;;;;;0.20;0.20;;;;;;;11.41;33.33;103480.19;5053341;28;20560;-66
2023/04/03 08:43:57;;;;;;;0.20;0.20;;;;;;;12.55;32.60;103484.50;5053376;28;20049;-64
2023/04/03 08:46:31;;;;;;;0.20;0.20;;;;;;;13.01;32.98;103485.47;5054067;28;20029;-64
2023/04/03 08:48:58;;;;;;;0.20;0.20;;;;;;;12.19;32.26;103484.06;5053210;28;20033;-64
2023/04/03 08:51:24;;;;;;;0.22;0.22;;;;;;;11.75;32.80;103481.94;5047295;28;20033;-64
2023/04/03 08:53:58;;;;;;;0.20;0.20;;;;;;;13.37;32.16;103478.53;5047558;28;20037;-65
2023/04/03 08:56:24;;;;;;;0.20;0.20;;;;;;;12.43;32.15;103485.88;5053469;28;20378;-65
2023/04/03 08:58:57;;;;;;;0.25;0.25;;;;;;;12.94;31.39;103479.09;5053278;28;20021;-66
2023/04/03 09:01:29;;;;;;;0.35;0.35;;;;;;;13.17;31.40;103478.16;5035770;28;20033;-64
2023/04/03 09:03:55;;;;;;;0.30;0.30;;;;;;;12.57;31.48;103474.38;5052110;28;20485;-63
2023/04/03 09:06:25;;;;;;;0.25;0.25;;;;;;;13.21;30.51;103475.94;5052327;28;20064;-65
2023/04/03 09:09:27;;;;;;;0.28;0.28;;;;;;;13.84;28.95;103470.22;5052414;28;20033;-64
2023/04/03 09:12:14;;;;;;;0.30;0.30;;;;;;;13.11;30.19;103470.75;5052255;28;20036;-65
2023/04/03 09:15:05;;;;;;;0.20;0.20;;;;;;;13.47;28.37;103473.72;5052094;28;20041;-65
2023/04/03 09:17:43;;;;;;;;;;;;;;;14.26;28.05;103462.38;5043151;28;20041;-65
2023/04/03 09:20:21;;;;;;;0.10;0.10;;;;;;;14.30;28.36;103462.88;5052407;28;20424;-66
2023/04/03 09:22:48;;;;;;;0.10;0.10;;;;;;;14.32;27.75;103458.97;5051789;28;20113;-65
2023/04/03 09:25:16;;;;;;;0.25;0.25;;;;;;;14.84;25.90;103458.81;5052532;28;20472;-65
2023/04/03 09:27:42;;;;;;;0.20;0.20;;;;;;;14.08;26.83;103453.78;5052046;28;20124;-65
2023/04/03 09:30:16;;;;;;;0.20;0.20;;;;;;;14.62;26.81;103457.91;5051771;28;20112;-63
2023/04/03 09:32:43;;;;;;;0.20;0.20;;;;;;;13.68;26.90;103452.28;5047153;28;20132;-65
2023/04/03 09:35:32;;;;;;;0.30;0.30;;;;;;;14.52;25.13;103445.72;5047012;28;20033;-65
2023/04/03 09:38:15;;;;;;;0.22;0.22;;;;;;;13.11;26.64;103442.91;5052049;28;20025;-64
2023/04/03 09:40:43;;;;;;;0.20;0.20;;;;;;;13.89;25.59;103438.09;5052280;28;20028;-64
2023/04/03 09:43:17;;;;;;;0.20;0.20;;;;;;;13.81;26.14;103443.56;5053157;28;20464;-66
2023/04/03 09:45:45;;;;;;;0.20;0.20;;;;;;;13.29;26.65;103451.56;5052335;28;20120;-65
2023/04/03 09:48:13;;;;;;;0.20;0.20;;;;;;;14.21;25.94;103453.97;5052212;28;20132;-66
2023/04/03 09:50:58;;;;;;;0.20;0.20;;;;;;;14.80;25.20;103438.59;5052307;28;20179;-66
2023/04/03 09:53:42;;;;;;;0.30;0.30;;;;;;;14.35;26.67;103449.66;5051684;28;20025;-65
2023/04/03 09:56:13;;;;;;;0.20;0.20;;;;;;;13.57;26.65;103433.81;5051799;28;20040;-63
2023/04/03 09:58:42;;;;;;;0.40;0.40;;;;;;;13.91;27.70;103446.84;5043140;28;20020;-65
2023/04/03 10:01:26;;;;;;;0.30;0.30;;;;;;;13.98;26.53;103437.81;5021476;28;20063;-65
2023/04/03 10:04:11;;;;;;;0.40;0.40;;;;;;;13.92;26.36;103443.09;5013952;28;20037;-65
2023/04/03 10:06:48;;;;;;;0.40;0.40;;;;;;;14.07;26.12;103439.41;5032210;28;20130;-65
2023/04/03 10:09:20;;;;;;;0.22;0.22;;;;;;;14.36;26.76;103435.91;5040257;28;20508;-64
2023/04/03 10:12:01;;;;;;;0.30;0.30;;;;;;;15.35;26.29;103424.41;5038236;28;20071;-65
2023/04/03 10:14:27;;;;;;;0.35;0.35;;;;;;;15.58;25.69;103427.78;5047996;28;20040;-65
2023/04/03 10:17:18;;;;;;;0.20;0.20;;;;;;;14.65;26.45;103424.22;5048047;28;20033;-66
2023/04/03 10:20:03;;;;;;;0.20;0.20;;;;;;;15.75;25.21;103430.00;5045631;28;20768;-64
2023/04/03 10:22:47;;;;;;;0.20;0.20;;;;;;;14.78;24.94;103425.22;5020895;28;20044;-64
2023/04/03 10:25:34;;;;;;;0.10;0.10;;;;;;;14.85;25.77;103419.91;5048270;28;20480;-64
2023/04/03 10:28:16;;;;;;;0.30;0.30;;;;;;;15.15;26.05;103421.50;5057182;28;20136;-64
2023/04/03 10:31:11;;;;;;;0.20;0.20;;;;;;;14.56;26.25;103411.84;5040977;28;20037;-64
2023/04/03 10:33:52;;;;;;;0.20;0.20;;;;;;;13.84;25.68;103410.75;5031434;28;20048;-64
2023/04/03 10:36:41;;;;;;;0.10;0.10;;;;;;;15.44;25.88;103413.25;5048143;28;20110;-64
2023/04/03 10:39:17;;;;;;;0.10;0.10;;;;;;;14.69;25.99;103407.41;5046965;28;20037;-65
2023/04/03 10:42:09;;;;;;;0.30;0.30;;;;;;;15.01;25.64;103403.41;5031703;28;20029;-65
2023/04/03 10:45:15;;;;;;;0.10;0.10;;;;;;;14.69;26.22;103406.56;5047864;28;20044;-64
2023/04/03 10:48:13;;;;;;;0.20;0.20;;;;;;;16.08;25.09;103407.72;4984531;28;20045;-65
2023/04/03 10:51:08;;;;;;;0.20;0.20;;;;;;;16.32;23.58;103391.78;4983937;28;20133;-64
2023/04/03 10:53:45;;;;;;;0.20;0.20;;;;;;;16.36;25.04;103397.63;4983871;28;20673;-64
2023/04/03 10:56:25;;;;;;;0.20;0.20;;;;;;;16.11;24.29;103393.75;4983656;28;20402;-63
2023/04/03 10:59:29;;;;;;;0.22;0.22;;;;;;;15.87;25.05;103389.63;4983560;28;20049;-64
2023/04/03 11:02:01;;;;;;;0.63;0.20;;;;;;;15.60;25.31;103390.47;4907531;29;20028;-64
2023/04/03 11:04:31;;;;;;;0.30;0.30;;;;;;;15.44;24.91;103380.75;4907984;29;20576;-64
2023/04/03 11:07:23;;;;;;;0.30;0.30;;;;;;;15.22;25.52;103376.34;4907701;29;20572;-65
2023/04/03 11:09:55;;;;;;;0.20;0.20;;;;;;;16.50;24.02;103381.25;4895015;29;20036;-64
2023/04/03 11:12:24;;;;;;;0.20;0.20;;;;;;;16.40;24.21;103377.19;4906318;29;20040;-66
2023/04/03 11:14:51;;;;;;;0.20;0.20;;;;;;;15.81;25.24;103383.13;4907555;29;20043;-65
2023/04/03 11:17:23;;;;;;;0.20;0.20;;;;;;;15.78;25.52;103375.38;4906531;29;20052;-64
2023/04/03 11:20:34;;;;;;;0.20;0.20;;;;;;;15.35;23.97;103371.03;4910485;29;20039;-66
2023/04/03 11:23:03;;;;;;;0.20;0.20;;;;;;;15.34;25.28;103374.78;4911240;28;20143;-65
2023/04/03 11:25:32;;;;;;;0.20;0.20;;;;;;;16.02;25.25;103371.34;4968320;28;20050;-64
2023/04/03 11:27:58;;;;;;;0.28;0.28;;;;;;;16.46;24.70;103368.25;4968592;28;20074;-65
2023/04/03 11:30:39;;;;;;;0.28;0.28;;;;;;;17.10;23.94;103360.53;4967097;28;20042;-66
2023/04/03 11:33:38;;;;;;;0.20;0.20;;;;;;;17.72;23.19;103347.38;4966959;28;20130;-65
2023/04/03 11:36:09;;;;;;;0.30;0.30;;;;;;;16.72;23.22;103353.97;4977148;28;20569;-65
2023/04/03 11:38:43;;;;;;;0.20;0.10;;;;;;;15.89;23.97;103362.28;5045730;28;20112;-66